sensor_id;sensor_type;location;lat;lon;timestamp;pressure;altitude;pressure_sealevel;temperature;humidity
19128;BME280;9696;53.686;10.094;2023-07-09T00:01:58;101818.13;;;17.81;100.00
19128;BME280;9696;53.686;10.094;2023-07-09T00:04:27;101818.19;;;17.71;100.00
19128;BME280;9696;53.686;10.094;2023-07-09T00:07:02;101823.31;;;17.55;100.00
19128;BME280;9696;53.686;10.094;2023-07-09T00:09:33;101819.28;;;17.51;100.00
19128;BME280;9696;53.686;10.094;2023-07-09T00:12:02;101819.19;;;17.43;100.00
19128;BME280;9696;53.686;10.094;2023-07-09T00:14:32;101822.06;;;17.32;100.00
19128;BME280;9696;53.686;10.094;2023-07-09T00:17:02;101820.03;;;17.26;100.00
19128;BME280;9696;53.686;10.094;2023-07-09T00:19:31;101826.53;;;17.31;100.00
19128;BME280;9696;53.686;10.094;2023-07-09T00:22:02;101819.56;;;17.30;100.00
19128;BME280;9696;53.686;10.094;2023-07-09T00:24:31;101817.75;;;17.31;100.00
19128;BME280;9696;53.686;10.094;2023-07-09T00:27:00;101817.91;;;17.29;100.00
19128;BME280;9696;53.686;10.094;2023-07-09T00:29:29;101818.50;;;17.23;100.00
19128;BME280;9696;53.686;10.094;2023-07-09T00:31:58;101829.72;;;17.17;100.00
19128;BME280;9696;53.686;10.094;2023-07-09T00:34:27;101830.00;;;17.14;100.00
19128;BME280;9696;53.686;10.094;2023-07-09T00:36:57;101827.63;;;17.11;100.00
19128;BME280;9696;53.686;10.094;2023-07-09T00:39:27;101827.09;;;17.08;100.00
19128;BME280;9696;53.686;10.094;2023-07-09T00:41:56;101837.69;;;17.08;100.00
19128;BME280;9696;53.686;10.094;2023-07-09T00:44:29;101821.06;;;17.15;100.00
19128;BME280;9696;53.686;10.094;2023-07-09T00:47:21;101823.03;;;17.13;100.00
19128;BME280;9696;53.686;10.094;2023-07-09T00:50:02;101819.97;;;17.08;100.00
19128;BME280;9696;53.686;10.094;2023-07-09T00:52:35;101825.41;;;17.07;100.00
19128;BME280;9696;53.686;10.094;2023-07-09T00:55:11;101829.75;;;17.08;100.00
19128;BME280;9696;53.686;10.094;2023-07-09T00:57:43;101826.31;;;16.98;100.00
19128;BME280;9696;53.686;10.094;2023-07-09T01:00:14;101826.03;;;17.01;100.00
19128;BME280;9696;53.686;10.094;2023-07-09T01:02:47;101827.31;;;16.96;100.00
19128;BME280;9696;53.686;10.094;2023-07-09T01:05:18;101818.38;;;16.98;100.00
19128;BME280;9696;53.686;10.094;2023-07-09T01:07:48;101826.47;;;16.96;100.00
19128;BME280;9696;53.686;10.094;2023-07-09T01:10:19;101825.25;;;16.90;100.00
19128;BME280;9696;53.686;10.094;2023-07-09T01:12:49;101821.91;;;16.88;100.00
19128;BME280;9696;53.686;10.094;2023-07-09T01:15:18;101832.69;;;16.77;100.00
19128;BME280;9696;53.686;10.094;2023-07-09T01:17:48;101833.13;;;16.73;100.00
19128;BME280;9696;53.686;10.094;2023-07-09T01:20:22;101821.00;;;16.70;100.00
19128;BME280;9696;53.686;10.094;2023-07-09T01:22:53;101821.28;;;16.67;100.00
19128;BME280;9696;53.686;10.094;2023-07-09T01:25:27;101809.97;;;16.75;100.00
19128;BME280;9696;53.686;10.094;2023-07-09T01:27:58;101817.81;;;16.67;100.00
19128;BME280;9696;53.686;10.094;2023-07-09T01:30:30;101809.06;;;16.57;100.00
19128;BME280;9696;53.686;10.094;2023-07-09T01:33:01;101809.31;;;16.54;100.00
19128;BME280;9696;53.686;10.094;2023-07-09T01:35:32;101808.47;;;16.53;100.00
19128;BME280;9696;53.686;10.094;2023-07-09T01:38:03;101805.84;;;16.53;100.00
19128;BME280;9696;53.686;10.094;2023-07-09T01:40:36;101810.59;;;16.59;100.00
19128;BME280;9696;53.686;10.094;2023-07-09T01:43:06;101806.66;;;16.54;100.00
19128;BME280;9696;53.686;10.094;2023-07-09T01:45:36;101803.19;;;16.53;100.00
19128;BME280;9696;53.686;10.094;2023-07-09T01:48:07;101805.41;;;16.48;100.00
19128;BME280;9696;53.686;10.094;2023-07-09T01:50:44;101818.28;;;16.43;100.00
19128;BME280;9696;53.686;10.094;2023-07-09T01:53:16;101814.38;;;16.37;100.00
19128;BME280;9696;53.686;10.094;2023-07-09T01:55:46;101818.28;;;16.33;100.00
19128;BME280;9696;53.686;10.094;2023-07-09T01:58:15;101819.69;;;16.28;100.00
19128;BME280;9696;53.686;10.094;2023-07-09T02:00:44;101810.78;;;16.29;100.00
19128;BME280;9696;53.686;10.094;2023-07-09T02:03:14;101808.44;;;16.26;100.00
19128;BME280;9696;53.686;10.094;2023-07-09T02:05:45;101809.81;;;16.30;100.00
19128;BME280;9696;53.686;10.094;2023-07-09T02:08:16;101803.56;;;16.21;100.00
19128;BME280;9696;53.686;10.094;2023-07-09T02:10:47;101808.31;;;16.18;100.00
19128;BME280;9696;53.686;10.094;2023-07-09T02:13:17;101808.97;;;16.20;100.00
19128;BME280;9696;53.686;10.094;2023-07-09T02:15:46;101808.16;;;16.19;100.00
19128;BME280;9696;53.686;10.094;2023-07-09T02:18:15;101806.31;;;16.20;100.00
19128;BME280;9696;53.686;10.094;2023-07-09T02:20:46;101806.78;;;16.15;100.00
19128;BME280;9696;53.686;10.094;2023-07-09T02:23:16;101808.31;;;16.08;100.00
19128;BME280;9696;53.686;10.094;2023-07-09T02:25:45;101811.13;;;16.07;100.00
19128;BME280;9696;53.686;10.094;2023-07-09T02:28:15;101807.75;;;16.14;100.00
19128;BME280;9696;53.686;10.094;2023-07-09T02:30:44;101809.97;;;16.09;100.00
19128;BME280;9696;53.686;10.094;2023-07-09T02:33:13;101808.59;;;16.05;100.00
19128;BME280;9696;53.686;10.094;2023-07-09T02:35:43;101801.91;;;16.01;100.00
19128;BME280;9696;53.686;10.094;2023-07-09T02:38:12;101803.88;;;15.99;100.00
19128;BME280;9696;53.686;10.094;2023-07-09T02:40:42;101802.47;;;15.85;100.00
19128;BME280;9696;53.686;10.094;2023-07-09T02:43:11;101804.88;;;15.79;100.00
19128;BME280;9696;53.686;10.094;2023-07-09T02:45:40;101803.91;;;15.80;100.00
19128;BME280;9696;53.686;10.094;2023-07-09T02:48:11;101802.22;;;15.79;100.00
19128;BME280;9696;53.686;10.094;2023-07-09T02:50:41;101807.94;;;15.84;100.00
19128;BME280;9696;53.686;10.094;2023-07-09T02:53:10;101807.22;;;15.91;100.00
19128;BME280;9696;53.686;10.094;2023-07-09T02:55:39;101803.75;;;15.91;100.00
19128;BME280;9696;53.686;10.094;2023-07-09T02:58:10;101803.47;;;15.94;100.00
19128;BME280;9696;53.686;10.094;2023-07-09T03:00:39;101805.00;;;15.87;100.00
19128;BME280;9696;53.686;10.094;2023-07-09T03:03:08;101803.31;;;15.86;100.00
19128;BME280;9696;53.686;10.094;2023-07-09T03:05:37;101810.59;;;15.84;100.00
19128;BME280;9696;53.686;10.094;2023-07-09T03:08:07;101809.16;;;15.89;100.00
19128;BME280;9696;53.686;10.094;2023-07-09T03:10:36;101803.75;;;15.91;100.00
19128;BME280;9696;53.686;10.094;2023-07-09T03:13:06;101808.75;;;15.84;100.00
19128;BME280;9696;53.686;10.094;2023-07-09T03:15:36;101808.34;;;15.89;100.00
19128;BME280;9696;53.686;10.094;2023-07-09T03:18:05;101817.09;;;15.89;100.00
19128;BME280;9696;53.686;10.094;2023-07-09T03:20:34;101806.69;;;15.88;100.00
19128;BME280;9696;53.686;10.094;2023-07-09T03:23:06;101817.25;;;15.78;100.00
19128;BME280;9696;53.686;10.094;2023-07-09T03:25:40;101811.25;;;15.76;100.00
19128;BME280;9696;53.686;10.094;2023-07-09T03:28:09;101814.63;;;15.78;100.00
19128;BME280;9696;53.686;10.094;2023-07-09T03:30:42;101818.22;;;15.77;100.00
19128;BME280;9696;53.686;10.094;2023-07-09T03:33:12;101817.13;;;15.80;100.00
19128;BME280;9696;53.686;10.094;2023-07-09T03:35:42;101816.84;;;15.83;100.00
19128;BME280;9696;53.686;10.094;2023-07-09T03:38:11;101823.53;;;15.77;100.00
19128;BME280;9696;53.686;10.094;2023-07-09T03:40:41;101822.69;;;15.77;100.00
19128;BME280;9696;53.686;10.094;2023-07-09T03:43:10;101826.03;;;15.79;100.00
19128;BME280;9696;53.686;10.094;2023-07-09T03:45:41;101825.88;;;15.80;100.00
19128;BME280;9696;53.686;10.094;2023-07-09T03:48:13;101825.06;;;15.80;100.00
19128;BME280;9696;53.686;10.094;2023-07-09T03:50:44;101826.16;;;15.77;100.00
19128;BME280;9696;53.686;10.094;2023-07-09T03:53:15;101833.69;;;15.82;100.00
19128;BME280;9696;53.686;10.094;2023-07-09T03:55:46;101824.50;;;15.86;100.00
19128;BME280;9696;53.686;10.094;2023-07-09T03:58:15;101829.78;;;15.95;100.00
19128;BME280;9696;53.686;10.094;2023-07-09T04:00:46;101830.06;;;15.92;100.00
19128;BME280;9696;53.686;10.094;2023-07-09T04:03:15;101829.94;;;15.94;100.00
19128;BME280;9696;53.686;10.094;2023-07-09T04:05:44;101834.66;;;15.90;100.00
19128;BME280;9696;53.686;10.094;2023-07-09T04:08:14;101837.44;;;15.89;100.00
19128;BME280;9696;53.686;10.094;2023-07-09T04:10:43;101828.81;;;15.87;100.00
19128;BME280;9696;53.686;10.094;2023-07-09T04:13:12;101825.88;;;15.90;100.00
19128;BME280;9696;53.686;10.094;2023-07-09T04:15:41;101825.31;;;15.96;100.00
19128;BME280;9696;53.686;10.094;2023-07-09T04:18:12;101825.31;;;16.06;100.00
19128;BME280;9696;53.686;10.094;2023-07-09T04:20:41;101822.13;;;16.02;100.00
19128;BME280;9696;53.686;10.094;2023-07-09T04:23:11;101821.41;;;16.10;100.00
19128;BME280;9696;53.686;10.094;2023-07-09T04:25:40;101824.50;;;15.95;100.00
19128;BME280;9696;53.686;10.094;2023-07-09T04:28:09;101824.63;;;15.94;100.00
19128;BME280;9696;53.686;10.094;2023-07-09T04:30:38;101826.16;;;15.96;100.00
19128;BME280;9696;53.686;10.094;2023-07-09T04:33:07;101822.97;;;16.02;100.00
19128;BME280;9696;53.686;10.094;2023-07-09T04:35:38;101816.25;;;16.08;100.00
19128;BME280;9696;53.686;10.094;2023-07-09T04:38:08;101821.28;;;16.11;100.00
19128;BME280;9696;53.686;10.094;2023-07-09T04:40:37;101820.88;;;16.16;100.00
19128;BME280;9696;53.686;10.094;2023-07-09T04:43:06;101829.19;;;16.21;100.00
19128;BME280;9696;53.686;10.094;2023-07-09T04:45:35;101825.81;;;16.28;100.00
19128;BME280;9696;53.686;10.094;2023-07-09T04:48:05;101824.13;;;16.37;100.00
19128;BME280;9696;53.686;10.094;2023-07-09T04:50:34;101826.63;;;16.48;100.00
19128;BME280;9696;53.686;10.094;2023-07-09T04:53:05;101827.03;;;16.53;100.00
19128;BME280;9696;53.686;10.094;2023-07-09T04:55:34;101834.28;;;16.61;100.00
19128;BME280;9696;53.686;10.094;2023-07-09T04:58:03;101830.69;;;16.89;100.00
19128;BME280;9696;53.686;10.094;2023-07-09T05:00:32;101827.34;;;17.14;100.00
19128;BME280;9696;53.686;10.094;2023-07-09T05:03:01;101828.59;;;17.65;100.00
19128;BME280;9696;53.686;10.094;2023-07-09T05:05:30;101821.44;;;18.26;100.00
19128;BME280;9696;53.686;10.094;2023-07-09T05:07:59;101817.22;;;18.42;100.00
19128;BME280;9696;53.686;10.094;2023-07-09T05:10:30;101811.78;;;18.77;100.00
19128;BME280;9696;53.686;10.094;2023-07-09T05:12:59;101820.06;;;19.08;100.00
19128;BME280;9696;53.686;10.094;2023-07-09T05:15:28;101807.38;;;19.44;100.00
19128;BME280;9696;53.686;10.094;2023-07-09T05:17:57;101806.50;;;19.35;100.00
19128;BME280;9696;53.686;10.094;2023-07-09T05:20:27;101817.03;;;19.61;100.00
19128;BME280;9696;53.686;10.094;2023-07-09T05:22:56;101806.75;;;19.74;100.00
19128;BME280;9696;53.686;10.094;2023-07-09T05:25:25;101807.59;;;19.83;100.00
19128;BME280;9696;53.686;10.094;2023-07-09T05:27:56;101803.25;;;20.14;100.00
19128;BME280;9696;53.686;10.094;2023-07-09T05:30:26;101796.72;;;20.24;100.00
19128;BME280;9696;53.686;10.094;2023-07-09T05:32:55;101796.16;;;20.61;100.00
19128;BME280;9696;53.686;10.094;2023-07-09T05:35:26;101808.84;;;20.27;100.00
19128;BME280;9696;53.686;10.094;2023-07-09T05:37:56;101807.56;;;20.78;100.00
19128;BME280;9696;53.686;10.094;2023-07-09T05:40:25;101810.19;;;21.56;100.00
19128;BME280;9696;53.686;10.094;2023-07-09T05:42:55;101812.03;;;21.33;100.00
19128;BME280;9696;53.686;10.094;2023-07-09T05:45:24;101808.53;;;21.32;100.00
19128;BME280;9696;53.686;10.094;2023-07-09T05:47:54;101818.88;;;22.03;100.00
19128;BME280;9696;53.686;10.094;2023-07-09T05:50:23;101812.91;;;22.31;100.00
19128;BME280;9696;53.686;10.094;2023-07-09T05:52:52;101809.94;;;22.26;100.00
19128;BME280;9696;53.686;10.094;2023-07-09T05:55:21;101813.94;;;22.59;100.00
19128;BME280;9696;53.686;10.094;2023-07-09T05:57:51;101809.72;;;22.79;100.00
19128;BME280;9696;53.686;10.094;2023-07-09T06:00:22;101809.03;;;22.48;100.00
19128;BME280;9696;53.686;10.094;2023-07-09T06:02:51;101807.19;;;22.48;100.00
19128;BME280;9696;53.686;10.094;2023-07-09T06:05:21;101802.25;;;22.75;100.00
19128;BME280;9696;53.686;10.094;2023-07-09T06:07:50;101805.00;;;22.81;100.00
19128;BME280;9696;53.686;10.094;2023-07-09T06:10:19;101800.47;;;22.96;100.00
19128;BME280;9696;53.686;10.094;2023-07-09T06:12:49;101804.63;;;22.55;100.00
19128;BME280;9696;53.686;10.094;2023-07-09T06:15:18;101803.03;;;22.61;100.00
19128;BME280;9696;53.686;10.094;2023-07-09T06:17:49;101802.06;;;22.47;100.00
19128;BME280;9696;53.686;10.094;2023-07-09T06:20:18;101807.84;;;22.80;100.00
19128;BME280;9696;53.686;10.094;2023-07-09T06:22:47;101794.03;;;22.91;100.00
19128;BME280;9696;53.686;10.094;2023-07-09T06:25:16;101795.88;;;22.76;100.00
19128;BME280;9696;53.686;10.094;2023-07-09T06:27:45;101801.97;;;22.70;100.00
19128;BME280;9696;53.686;10.094;2023-07-09T06:30:14;101801.75;;;22.56;100.00
19128;BME280;9696;53.686;10.094;2023-07-09T06:32:45;101801.66;;;23.44;100.00
19128;BME280;9696;53.686;10.094;2023-07-09T06:35:16;101789.53;;;23.48;100.00
19128;BME280;9696;53.686;10.094;2023-07-09T06:37:45;101804.84;;;23.19;100.00
19128;BME280;9696;53.686;10.094;2023-07-09T06:40:15;101795.50;;;23.29;100.00
19128;BME280;9696;53.686;10.094;2023-07-09T06:42:44;101795.91;;;23.90;100.00
19128;BME280;9696;53.686;10.094;2023-07-09T06:45:23;101799.78;;;23.87;100.00
19128;BME280;9696;53.686;10.094;2023-07-09T06:47:52;101802.06;;;23.90;100.00
19128;BME280;9696;53.686;10.094;2023-07-09T06:50:23;101804.25;;;24.02;100.00
19128;BME280;9696;53.686;10.094;2023-07-09T06:52:52;101802.34;;;24.23;100.00
19128;BME280;9696;53.686;10.094;2023-07-09T06:55:21;101808.56;;;24.58;100.00
19128;BME280;9696;53.686;10.094;2023-07-09T06:57:51;101810.22;;;24.59;100.00
19128;BME280;9696;53.686;10.094;2023-07-09T07:00:20;101804.63;;;24.89;100.00
19128;BME280;9696;53.686;10.094;2023-07-09T07:02:49;101809.16;;;24.88;100.00
19128;BME280;9696;53.686;10.094;2023-07-09T07:05:19;101823.34;;;24.82;100.00
19128;BME280;9696;53.686;10.094;2023-07-09T07:07:50;101807.00;;;25.24;100.00
19128;BME280;9696;53.686;10.094;2023-07-09T07:10:19;101812.81;;;25.41;100.00
19128;BME280;9696;53.686;10.094;2023-07-09T07:12:49;101806.91;;;25.65;100.00
19128;BME280;9696;53.686;10.094;2023-07-09T07:15:18;101810.13;;;25.28;100.00
19128;BME280;9696;53.686;10.094;2023-07-09T07:17:48;101814.97;;;25.05;100.00
19128;BME280;9696;53.686;10.094;2023-07-09T07:20:18;101816.22;;;24.96;100.00
19128;BME280;9696;53.686;10.094;2023-07-09T07:22:49;101813.09;;;26.12;100.00
19128;BME280;9696;53.686;10.094;2023-07-09T07:25:18;101815.38;;;25.56;100.00
19128;BME280;9696;53.686;10.094;2023-07-09T07:27:47;101814.94;;;25.52;100.00
19128;BME280;9696;53.686;10.094;2023-07-09T07:30:16;101805.88;;;25.66;100.00
19128;BME280;9696;53.686;10.094;2023-07-09T07:32:47;101805.72;;;25.14;100.00
19128;BME280;9696;53.686;10.094;2023-07-09T07:35:17;101806.09;;;25.85;100.00
19128;BME280;9696;53.686;10.094;2023-07-09T07:37:48;101804.00;;;25.54;100.00
19128;BME280;9696;53.686;10.094;2023-07-09T07:40:17;101800.25;;;26.40;100.00
19128;BME280;9696;53.686;10.094;2023-07-09T07:42:47;101806.06;;;26.17;100.00
19128;BME280;9696;53.686;10.094;2023-07-09T07:45:16;101808.34;;;26.14;100.00
19128;BME280;9696;53.686;10.094;2023-07-09T07:47:45;101813.75;;;26.27;100.00
19128;BME280;9696;53.686;10.094;2023-07-09T07:50:15;101818.50;;;25.79;100.00
19128;BME280;9696;53.686;10.094;2023-07-09T07:52:44;101810.63;;;26.37;100.00
19128;BME280;9696;53.686;10.094;2023-07-09T07:55:14;101814.56;;;26.01;100.00
19128;BME280;9696;53.686;10.094;2023-07-09T07:57:47;101812.44;;;25.44;100.00
19128;BME280;9696;53.686;10.094;2023-07-09T08:00:17;101810.03;;;26.02;100.00
19128;BME280;9696;53.686;10.094;2023-07-09T08:02:47;101808.56;;;26.06;100.00
19128;BME280;9696;53.686;10.094;2023-07-09T08:05:16;101804.84;;;26.33;100.00
19128;BME280;9696;53.686;10.094;2023-07-09T08:07:46;101801.94;;;26.99;100.00
19128;BME280;9696;53.686;10.094;2023-07-09T08:10:16;101801.88;;;26.61;100.00
19128;BME280;9696;53.686;10.094;2023-07-09T08:12:46;101809.75;;;26.62;100.00
19128;BME280;9696;53.686;10.094;2023-07-09T08:15:15;101798.19;;;26.42;100.00
19128;BME280;9696;53.686;10.094;2023-07-09T08:17:45;101799.09;;;26.94;100.00
19128;BME280;9696;53.686;10.094;2023-07-09T08:20:14;101799.22;;;26.48;100.00
19128;BME280;9696;53.686;10.094;2023-07-09T08:22:43;101795.81;;;26.72;100.00
19128;BME280;9696;53.686;10.094;2023-07-09T08:25:15;101794.00;;;27.10;100.00
19128;BME280;9696;53.686;10.094;2023-07-09T08:27:45;101794.84;;;27.11;100.00
19128;BME280;9696;53.686;10.094;2023-07-09T08:30:14;101793.38;;;27.15;100.00
19128;BME280;9696;53.686;10.094;2023-07-09T08:32:43;101795.69;;;26.54;100.00
19128;BME280;9696;53.686;10.094;2023-07-09T08:35:12;101800.03;;;26.48;100.00
19128;BME280;9696;53.686;10.094;2023-07-09T08:38:02;101794.03;;;26.53;100.00
19128;BME280;9696;53.686;10.094;2023-07-09T08:40:33;101795.06;;;27.09;100.00
19128;BME280;9696;53.686;10.094;2023-07-09T08:43:13;101784.66;;;28.25;100.00
19128;BME280;9696;53.686;10.094;2023-07-09T08:45:47;101786.94;;;28.46;100.00
19128;BME280;9696;53.686;10.094;2023-07-09T08:48:26;101783.41;;;28.28;100.00
19128;BME280;9696;53.686;10.094;2023-07-09T08:51:00;101779.59;;;28.53;100.00
19128;BME280;9696;53.686;10.094;2023-07-09T08:53:38;101780.16;;;28.92;99.25
19128;BME280;9696;53.686;10.094;2023-07-09T08:56:10;101783.59;;;28.08;99.54
19128;BME280;9696;53.686;10.094;2023-07-09T08:58:39;101778.81;;;28.65;100.00
19128;BME280;9696;53.686;10.094;2023-07-09T09:01:17;101779.97;;;28.21;100.00
19128;BME280;9696;53.686;10.094;2023-07-09T09:03:50;101786.28;;;28.51;100.00
19128;BME280;9696;53.686;10.094;2023-07-09T09:06:22;101774.44;;;28.70;97.28
19128;BME280;9696;53.686;10.094;2023-07-09T09:09:03;101768.03;;;28.46;100.00
19128;BME280;9696;53.686;10.094;2023-07-09T09:11:43;101775.59;;;27.95;100.00
19128;BME280;9696;53.686;10.094;2023-07-09T09:14:23;101777.59;;;27.81;100.00
19128;BME280;9696;53.686;10.094;2023-07-09T09:16:56;101779.06;;;28.63;100.00
19128;BME280;9696;53.686;10.094;2023-07-09T09:19:29;101781.38;;;27.98;100.00
19128;BME280;9696;53.686;10.094;2023-07-09T09:22:04;101776.94;;;29.01;97.72
19128;BME280;9696;53.686;10.094;2023-07-09T09:24:36;101765.91;;;29.33;92.42
19128;BME280;9696;53.686;10.094;2023-07-09T09:27:09;101762.53;;;29.49;96.23
19128;BME280;9696;53.686;10.094;2023-07-09T09:29:38;101768.41;;;28.86;100.00
19128;BME280;9696;53.686;10.094;2023-07-09T09:32:18;101771.34;;;29.56;99.92
19128;BME280;9696;53.686;10.094;2023-07-09T09:34:49;101768.31;;;29.76;94.80
19128;BME280;9696;53.686;10.094;2023-07-09T09:37:27;101762.81;;;29.71;99.32
19128;BME280;9696;53.686;10.094;2023-07-09T09:39:58;101762.44;;;29.67;98.08
19128;BME280;9696;53.686;10.094;2023-07-09T09:42:32;101765.72;;;29.58;100.00
19128;BME280;9696;53.686;10.094;2023-07-09T09:45:02;101762.66;;;29.24;100.00
19128;BME280;9696;53.686;10.094;2023-07-09T09:47:31;101765.03;;;28.91;96.00
19128;BME280;9696;53.686;10.094;2023-07-09T09:50:00;101762.88;;;29.53;100.00
19128;BME280;9696;53.686;10.094;2023-07-09T09:52:31;101762.84;;;29.94;93.41
19128;BME280;9696;53.686;10.094;2023-07-09T09:55:11;101765.00;;;29.21;96.05
19128;BME280;9696;53.686;10.094;2023-07-09T09:57:48;101756.25;;;28.95;97.38
19128;BME280;9696;53.686;10.094;2023-07-09T10:00:19;101761.38;;;29.57;98.99
19128;BME280;9696;53.686;10.094;2023-07-09T10:02:52;101759.31;;;28.81;96.88
19128;BME280;9696;53.686;10.094;2023-07-09T10:05:31;101760.31;;;29.69;99.66
19128;BME280;9696;53.686;10.094;2023-07-09T10:08:08;101755.94;;;29.57;100.00
19128;BME280;9696;53.686;10.094;2023-07-09T10:10:40;101755.28;;;30.08;95.64
19128;BME280;9696;53.686;10.094;2023-07-09T10:13:19;101750.94;;;30.18;93.79
19128;BME280;9696;53.686;10.094;2023-07-09T10:16:02;101758.59;;;29.75;100.00
19128;BME280;9696;53.686;10.094;2023-07-09T10:18:40;101754.81;;;30.11;93.95
19128;BME280;9696;53.686;10.094;2023-07-09T10:21:15;101753.41;;;29.97;92.52
19128;BME280;9696;53.686;10.094;2023-07-09T10:23:54;101754.06;;;29.45;96.69
19128;BME280;9696;53.686;10.094;2023-07-09T10:26:35;101747.38;;;29.71;98.61
19128;BME280;9696;53.686;10.094;2023-07-09T10:29:24;101746.09;;;29.62;97.20
19128;BME280;9696;53.686;10.094;2023-07-09T10:32:04;101747.97;;;30.43;96.95
19128;BME280;9696;53.686;10.094;2023-07-09T10:34:46;101752.56;;;30.31;90.86
19128;BME280;9696;53.686;10.094;2023-07-09T10:37:30;101751.19;;;30.05;96.00
19128;BME280;9696;53.686;10.094;2023-07-09T10:40:08;101745.78;;;30.05;91.87
19128;BME280;9696;53.686;10.094;2023-07-09T10:42:42;101749.75;;;29.91;87.58
19128;BME280;9696;53.686;10.094;2023-07-09T10:45:16;101746.53;;;30.40;91.30
19128;BME280;9696;53.686;10.094;2023-07-09T10:47:51;101749.88;;;29.84;98.71
19128;BME280;9696;53.686;10.094;2023-07-09T10:50:28;101741.91;;;30.64;93.07
19128;BME280;9696;53.686;10.094;2023-07-09T10:53:01;101739.75;;;31.06;87.22
19128;BME280;9696;53.686;10.094;2023-07-09T10:55:42;101745.19;;;30.95;86.58
19128;BME280;9696;53.686;10.094;2023-07-09T10:58:26;101743.16;;;31.30;78.48
19128;BME280;9696;53.686;10.094;2023-07-09T11:00:58;101738.56;;;31.30;81.70
19128;BME280;9696;53.686;10.094;2023-07-09T11:03:38;101732.69;;;31.67;83.54
19128;BME280;9696;53.686;10.094;2023-07-09T11:06:18;101734.06;;;30.79;84.10
19128;BME280;9696;53.686;10.094;2023-07-09T11:08:52;101722.13;;;30.64;83.27
19128;BME280;9696;53.686;10.094;2023-07-09T11:11:31;101721.88;;;31.05;79.54
19128;BME280;9696;53.686;10.094;2023-07-09T11:14:05;101731.47;;;30.56;81.11
19128;BME280;9696;53.686;10.094;2023-07-09T11:16:42;101724.69;;;30.70;87.85
19128;BME280;9696;53.686;10.094;2023-07-09T11:19:16;101719.59;;;31.47;76.80
19128;BME280;9696;53.686;10.094;2023-07-09T11:21:58;101725.31;;;31.01;88.59
19128;BME280;9696;53.686;10.094;2023-07-09T11:24:32;101720.00;;;32.28;86.51
19128;BME280;9696;53.686;10.094;2023-07-09T11:27:02;101712.06;;;32.48;77.36
19128;BME280;9696;53.686;10.094;2023-07-09T11:29:31;101714.72;;;31.83;86.84
19128;BME280;9696;53.686;10.094;2023-07-09T11:32:10;101723.94;;;31.31;82.59
19128;BME280;9696;53.686;10.094;2023-07-09T11:34:45;101709.13;;;31.72;76.62
19128;BME280;9696;53.686;10.094;2023-07-09T11:37:16;101705.28;;;32.67;73.15
19128;BME280;9696;53.686;10.094;2023-07-09T11:39:47;101710.38;;;31.65;71.01
19128;BME280;9696;53.686;10.094;2023-07-09T11:42:28;101698.88;;;32.13;63.47
19128;BME280;9696;53.686;10.094;2023-07-09T11:45:05;101704.38;;;32.01;66.85
19128;BME280;9696;53.686;10.094;2023-07-09T11:47:42;101691.94;;;32.22;73.25
19128;BME280;9696;53.686;10.094;2023-07-09T11:50:22;101700.25;;;31.77;67.21
19128;BME280;9696;53.686;10.094;2023-07-09T11:52:55;101689.25;;;32.49;75.93
19128;BME280;9696;53.686;10.094;2023-07-09T11:55:28;101689.34;;;32.10;66.71
19128;BME280;9696;53.686;10.094;2023-07-09T11:58:00;101684.13;;;31.87;65.18
19128;BME280;9696;53.686;10.094;2023-07-09T12:00:37;101693.09;;;31.88;69.65
19128;BME280;9696;53.686;10.094;2023-07-09T12:03:11;101689.78;;;32.94;72.45
19128;BME280;9696;53.686;10.094;2023-07-09T12:05:48;101691.94;;;32.22;71.11
19128;BME280;9696;53.686;10.094;2023-07-09T12:08:18;101687.03;;;31.47;66.89
19128;BME280;9696;53.686;10.094;2023-07-09T12:10:53;101676.72;;;32.04;70.52
19128;BME280;9696;53.686;10.094;2023-07-09T12:13:22;101679.31;;;32.11;66.48
19128;BME280;9696;53.686;10.094;2023-07-09T12:15:52;101680.94;;;31.57;70.47
19128;BME280;9696;53.686;10.094;2023-07-09T12:18:22;101685.72;;;32.48;67.69
19128;BME280;9696;53.686;10.094;2023-07-09T12:20:52;101678.41;;;32.76;59.49
19128;BME280;9696;53.686;10.094;2023-07-09T12:23:25;101680.03;;;32.50;68.83
19128;BME280;9696;53.686;10.094;2023-07-09T12:25:55;101673.25;;;32.74;71.01
19128;BME280;9696;53.686;10.094;2023-07-09T12:28:29;101669.50;;;32.32;68.77
19128;BME280;9696;53.686;10.094;2023-07-09T12:30:58;101668.44;;;32.81;59.71
19128;BME280;9696;53.686;10.094;2023-07-09T12:33:28;101654.41;;;31.80;72.35
19128;BME280;9696;53.686;10.094;2023-07-09T12:35:59;101657.63;;;32.38;71.99
19128;BME280;9696;53.686;10.094;2023-07-09T12:38:41;101661.28;;;33.02;65.29
19128;BME280;9696;53.686;10.094;2023-07-09T12:41:21;101664.78;;;31.84;75.35
19128;BME280;9696;53.686;10.094;2023-07-09T12:43:53;101664.69;;;32.39;78.54
19128;BME280;9696;53.686;10.094;2023-07-09T12:46:23;101654.03;;;32.10;73.36
19128;BME280;9696;53.686;10.094;2023-07-09T12:48:55;101650.34;;;32.00;71.57
19128;BME280;9696;53.686;10.094;2023-07-09T12:51:28;101647.84;;;32.15;72.04
19128;BME280;9696;53.686;10.094;2023-07-09T12:54:03;101646.44;;;31.91;72.78
19128;BME280;9696;53.686;10.094;2023-07-09T12:56:38;101645.66;;;32.60;72.84
19128;BME280;9696;53.686;10.094;2023-07-09T12:59:16;101639.75;;;32.68;63.66
19128;BME280;9696;53.686;10.094;2023-07-09T13:01:51;101633.78;;;32.66;54.13
19128;BME280;9696;53.686;10.094;2023-07-09T13:04:31;101640.06;;;32.99;49.24
19128;BME280;9696;53.686;10.094;2023-07-09T13:07:01;101639.50;;;32.43;49.88